createdAt,value
2019-01-19T00:00:20.863Z,1012.58
2019-01-19T00:01:20.837Z,1012.61
2019-01-19T00:02:20.809Z,1012.62
2019-01-19T00:03:20.783Z,1012.60
2019-01-19T00:04:20.750Z,1012.57
2019-01-19T00:05:20.723Z,1012.56
2019-01-19T00:06:20.701Z,1012.57
2019-01-19T00:07:20.665Z,1012.60
2019-01-19T00:08:20.642Z,1012.57
2019-01-19T00:09:20.610Z,1012.55
2019-01-19T00:10:20.582Z,1012.56
2019-01-19T00:11:20.553Z,1012.57
2019-01-19T00:12:20.530Z,1012.52
2019-01-19T00:13:20.500Z,1012.56
2019-01-19T00:14:20.529Z,1012.55
2019-01-19T00:15:20.440Z,1012.51
2019-01-19T00:16:20.411Z,1012.53
2019-01-19T00:17:20.383Z,1012.49
2019-01-19T00:18:20.360Z,1012.52
2019-01-19T00:19:20.331Z,1012.49
2019-01-19T00:20:20.299Z,1012.47
2019-01-19T00:21:20.308Z,1012.51
2019-01-19T00:22:20.247Z,1012.51
2019-01-19T00:23:20.213Z,1012.48
2019-01-19T00:24:20.188Z,1012.46
2019-01-19T00:25:20.157Z,1012.51
2019-01-19T00:26:20.130Z,1012.53
2019-01-19T00:27:20.105Z,1012.52
2019-01-19T00:28:20.073Z,1012.53
2019-01-19T00:29:20.044Z,1012.53
2019-01-19T00:30:20.017Z,1012.50
2019-01-19T00:31:20.034Z,1012.48
2019-01-19T00:32:19.962Z,1012.49
2019-01-19T00:33:19.933Z,1012.47
2019-01-19T00:34:20.157Z,1012.49
2019-01-19T00:35:19.875Z,1012.47
2019-01-19T00:36:19.846Z,1012.49
2019-01-19T00:37:19.822Z,1012.54
2019-01-19T00:38:19.791Z,1012.49
2019-01-19T00:39:19.761Z,1012.48
2019-01-19T00:40:19.734Z,1012.46
2019-01-19T00:41:19.706Z,1012.49
2019-01-19T00:42:19.677Z,1012.46
2019-01-19T00:43:19.656Z,1012.45
2019-01-19T00:44:19.620Z,1012.47
2019-01-19T00:45:19.594Z,1012.45
2019-01-19T00:46:19.567Z,1012.47
2019-01-19T00:47:19.535Z,1012.46
2019-01-19T00:48:19.509Z,1012.48
2019-01-19T00:49:19.481Z,1012.43
2019-01-19T00:50:19.449Z,1012.48
2019-01-19T00:51:19.420Z,1012.44
2019-01-19T00:52:19.392Z,1012.44
2019-01-19T00:53:19.364Z,1012.44
2019-01-19T00:54:19.336Z,1012.43
2019-01-19T00:55:19.308Z,1012.44
2019-01-19T00:56:19.278Z,1012.41
2019-01-19T00:57:19.250Z,1012.43
2019-01-19T00:58:19.225Z,1012.43
2019-01-19T00:59:19.193Z,1012.43
2019-01-19T01:00:19.163Z,1012.40
2019-01-19T01:01:19.136Z,1012.43
2019-01-19T01:02:19.111Z,1012.42
2019-01-19T01:03:19.078Z,1012.43
2019-01-19T01:04:19.053Z,1012.43
2019-01-19T01:05:25.261Z,1012.44
2019-01-19T01:06:18.997Z,1012.43
2019-01-19T01:07:18.967Z,1012.44
2019-01-19T01:08:18.935Z,1012.43
2019-01-19T01:09:18.908Z,1012.46
2019-01-19T01:10:18.878Z,1012.46
2019-01-19T01:11:18.849Z,1012.47
2019-01-19T01:12:18.824Z,1012.45
2019-01-19T01:13:18.793Z,1012.45
2019-01-19T01:14:18.770Z,1012.46
2019-01-19T01:15:18.801Z,1012.42
2019-01-19T01:16:18.705Z,1012.46
2019-01-19T01:17:18.680Z,1012.44
2019-01-19T01:18:18.651Z,1012.40
2019-01-19T01:19:18.618Z,1012.40
2019-01-19T01:20:18.593Z,1012.41
2019-01-19T01:21:18.560Z,1012.40
2019-01-19T01:22:18.532Z,1012.38
2019-01-19T01:23:18.503Z,1012.40
2019-01-19T01:24:18.474Z,1012.43
2019-01-19T01:25:18.450Z,1012.43
2019-01-19T01:26:18.417Z,1012.47
2019-01-19T01:27:18.388Z,1012.43
2019-01-19T01:28:18.359Z,1012.44
2019-01-19T01:29:18.330Z,1012.42
2019-01-19T01:30:18.303Z,1012.41
2019-01-19T01:31:18.273Z,1012.41
2019-01-19T01:32:18.244Z,1012.40
2019-01-19T01:33:18.214Z,1012.42
2019-01-19T01:34:18.185Z,1012.40
2019-01-19T01:35:18.156Z,1012.40
2019-01-19T01:36:18.131Z,1012.42
2019-01-19T01:37:18.100Z,1012.41
2019-01-19T01:38:18.074Z,1012.45
2019-01-19T01:39:18.044Z,1012.40
2019-01-19T01:40:18.013Z,1012.42
2019-01-19T01:41:17.984Z,1012.44
2019-01-19T01:42:17.954Z,1012.44
2019-01-19T01:43:17.928Z,1012.41
2019-01-19T01:44:17.900Z,1012.38
2019-01-19T01:45:17.869Z,1012.39
2019-01-19T01:46:17.838Z,1012.40
2019-01-19T01:47:17.813Z,1012.41
2019-01-19T01:48:17.780Z,1012.42
2019-01-19T01:49:17.751Z,1012.41
2019-01-19T01:50:17.724Z,1012.40
2019-01-19T01:51:17.693Z,1012.39
2019-01-19T01:52:17.664Z,1012.39
2019-01-19T01:53:17.634Z,1012.40
2019-01-19T01:54:17.606Z,1012.37
2019-01-19T01:55:17.577Z,1012.41
2019-01-19T01:56:17.547Z,1012.37
2019-01-19T01:57:17.519Z,1012.36
2019-01-19T01:58:17.489Z,1012.38
2019-01-19T01:59:17.464Z,1012.37
2019-01-19T02:00:17.436Z,1012.41
2019-01-19T02:01:17.402Z,1012.37
2019-01-19T02:02:17.374Z,1012.37
2019-01-19T02:03:17.345Z,1012.35
2019-01-19T02:04:17.319Z,1012.37
2019-01-19T02:05:17.292Z,1012.35
2019-01-19T02:06:17.260Z,1012.36
2019-01-19T02:07:17.229Z,1012.30
2019-01-19T02:08:17.202Z,1012.30
2019-01-19T02:09:17.169Z,1012.29
2019-01-19T02:10:17.140Z,1012.31
2019-01-19T02:11:17.110Z,1012.30
2019-01-19T02:12:17.083Z,1012.31
2019-01-19T02:13:17.053Z,1012.31
2019-01-19T02:14:17.028Z,1012.30
2019-01-19T02:15:16.994Z,1012.27
2019-01-19T02:16:16.964Z,1012.30
2019-01-19T02:17:16.940Z,1012.28
2019-01-19T02:18:16.907Z,1012.30
2019-01-19T02:19:16.887Z,1012.27
2019-01-19T02:20:16.850Z,1012.26
2019-01-19T02:21:16.820Z,1012.28
2019-01-19T02:22:16.794Z,1012.30
2019-01-19T02:23:16.761Z,1012.27
2019-01-19T02:24:16.736Z,1012.25
2019-01-19T02:25:16.703Z,1012.29
2019-01-19T02:26:16.678Z,1012.27
2019-01-19T02:27:16.648Z,1012.27
2019-01-19T02:28:16.619Z,1012.28
2019-01-19T02:29:16.585Z,1012.22
2019-01-19T02:30:16.558Z,1012.28
2019-01-19T02:31:16.528Z,1012.24
2019-01-19T02:32:16.505Z,1012.26
2019-01-19T02:33:16.469Z,1012.24
2019-01-19T02:34:16.446Z,1012.27
2019-01-19T02:35:16.415Z,1012.30
2019-01-19T02:36:16.381Z,1012.29
2019-01-19T02:37:16.355Z,1012.28
2019-01-19T02:38:16.324Z,1012.29
2019-01-19T02:39:16.295Z,1012.26
2019-01-19T02:40:16.267Z,1012.27
2019-01-19T02:41:16.236Z,1012.24
2019-01-19T02:42:16.208Z,1012.24
2019-01-19T02:43:16.182Z,1012.32
2019-01-19T02:44:16.151Z,1012.30
2019-01-19T02:45:16.122Z,1012.33
2019-01-19T02:46:16.096Z,1012.29
2019-01-19T02:47:16.065Z,1012.30
2019-01-19T02:48:16.035Z,1012.29
2019-01-19T02:49:16.006Z,1012.32
2019-01-19T02:50:15.980Z,1012.31
2019-01-19T02:51:15.953Z,1012.31
2019-01-19T02:52:15.918Z,1012.33
2019-01-19T02:53:15.890Z,1012.36
2019-01-19T02:54:15.865Z,1012.31
2019-01-19T02:55:15.835Z,1012.31
2019-01-19T02:56:15.802Z,1012.35
2019-01-19T02:57:15.774Z,1012.31
2019-01-19T02:58:15.746Z,1012.29
2019-01-19T02:59:15.717Z,1012.30
2019-01-19T03:00:15.696Z,1012.29
2019-01-19T03:01:15.665Z,1012.28
2019-01-19T03:02:15.631Z,1012.28
2019-01-19T03:03:15.602Z,1012.26
2019-01-19T03:04:15.574Z,1012.29
2019-01-19T03:05:15.548Z,1012.30
2019-01-19T03:06:15.516Z,1012.29
2019-01-19T03:07:15.490Z,1012.27
2019-01-19T03:08:15.461Z,1012.31
2019-01-19T03:09:15.429Z,1012.29
2019-01-19T03:10:15.401Z,1012.27
2019-01-19T03:11:15.381Z,1012.27
2019-01-19T03:12:15.344Z,1012.28
2019-01-19T03:13:15.315Z,1012.26
2019-01-19T03:14:15.289Z,1012.26
2019-01-19T03:15:15.256Z,1012.24
2019-01-19T03:16:15.227Z,1012.24
2019-01-19T03:17:15.198Z,1012.24
2019-01-19T03:18:15.171Z,1012.24
2019-01-19T03:19:15.144Z,1012.24
2019-01-19T03:20:15.115Z,1012.23
2019-01-19T03:21:15.082Z,1012.25
2019-01-19T03:22:15.053Z,1012.19
2019-01-19T03:23:15.031Z,1012.18
2019-01-19T03:24:14.997Z,1012.20
2019-01-19T03:25:14.968Z,1012.18
2019-01-19T03:26:14.939Z,1012.16
2019-01-19T03:27:14.909Z,1012.13
2019-01-19T03:28:14.880Z,1012.17
2019-01-19T03:29:14.852Z,1012.18
2019-01-19T03:30:14.824Z,1012.18
2019-01-19T03:31:14.793Z,1012.22
2019-01-19T03:32:14.769Z,1012.23
2019-01-19T03:33:14.750Z,1012.22
2019-01-19T03:34:14.706Z,1012.28
2019-01-19T03:35:14.676Z,1012.25
2019-01-19T03:36:14.655Z,1012.29
2019-01-19T03:37:14.619Z,1012.25
2019-01-19T03:38:14.590Z,1012.25
2019-01-19T03:39:14.563Z,1012.29
2019-01-19T03:40:14.532Z,1012.25
2019-01-19T03:41:14.503Z,1012.27
2019-01-19T03:42:14.474Z,1012.27
2019-01-19T03:43:14.447Z,1012.28
2019-01-19T03:44:14.414Z,1012.29
2019-01-19T03:45:14.385Z,1012.26
2019-01-19T03:46:14.357Z,1012.23
2019-01-19T03:47:14.331Z,1012.29
2019-01-19T03:48:14.300Z,1012.27
2019-01-19T03:49:14.269Z,1012.28
2019-01-19T03:50:14.243Z,1012.24
2019-01-19T03:51:14.214Z,1012.22
2019-01-19T03:52:14.182Z,1012.22
2019-01-19T03:53:14.151Z,1012.20
2019-01-19T03:54:14.124Z,1012.23
2019-01-19T03:55:14.095Z,1012.19
2019-01-19T03:56:14.064Z,1012.18
2019-01-19T03:57:14.035Z,1012.19
2019-01-19T03:58:14.011Z,1012.15
2019-01-19T03:59:13.976Z,1012.15
2019-01-19T04:00:13.948Z,1012.17
2019-01-19T04:01:13.919Z,1012.14
2019-01-19T04:02:13.890Z,1012.17
2019-01-19T04:03:13.859Z,1012.13
2019-01-19T04:04:13.840Z,1012.11
2019-01-19T04:05:13.802Z,1012.15
2019-01-19T04:06:13.779Z,1012.13
2019-01-19T04:07:13.743Z,1012.12
2019-01-19T04:08:13.715Z,1012.12
2019-01-19T04:09:13.684Z,1012.12
2019-01-19T04:10:13.655Z,1012.11
2019-01-19T04:11:13.624Z,1012.11
2019-01-19T04:12:13.595Z,1012.12
2019-01-19T04:13:13.566Z,1012.13
2019-01-19T04:14:13.537Z,1012.13
2019-01-19T04:15:13.511Z,1012.14
2019-01-19T04:16:13.482Z,1012.09
2019-01-19T04:17:13.449Z,1012.12
2019-01-19T04:18:13.424Z,1012.08
2019-01-19T04:19:13.390Z,1012.13
2019-01-19T04:20:13.361Z,1012.12
2019-01-19T04:21:13.338Z,1012.13
2019-01-19T04:22:13.304Z,1012.10
2019-01-19T04:23:13.273Z,1012.13
2019-01-19T04:24:13.244Z,1012.12
2019-01-19T04:25:13.223Z,1012.13
2019-01-19T04:26:13.185Z,1012.09
2019-01-19T04:27:13.155Z,1012.11
2019-01-19T04:28:13.132Z,1012.07
2019-01-19T04:29:13.100Z,1012.08
2019-01-19T04:30:13.074Z,1012.04
2019-01-19T04:31:13.038Z,1012.04
2019-01-19T04:32:13.009Z,1012.04
2019-01-19T04:33:12.989Z,1012.04
2019-01-19T04:34:12.953Z,1012.04
2019-01-19T04:35:12.923Z,1012.01
2019-01-19T04:36:21.225Z,1012.04
2019-01-19T04:37:12.862Z,1012.04
2019-01-19T04:38:12.831Z,1012.04
2019-01-19T04:39:12.809Z,1012.02
2019-01-19T04:40:12.772Z,1012.00
2019-01-19T04:41:12.743Z,1012.01
2019-01-19T04:42:12.718Z,1012.05
2019-01-19T04:43:12.683Z,1012.04
2019-01-19T04:44:12.655Z,1012.01
2019-01-19T04:45:12.626Z,1012.02
2019-01-19T04:46:12.596Z,1012.03
2019-01-19T04:47:12.566Z,1012.00
2019-01-19T04:48:12.539Z,1012.03
2019-01-19T04:49:12.510Z,1012.04
2019-01-19T04:50:12.478Z,1012.05
2019-01-19T04:51:12.446Z,1012.04
2019-01-19T04:52:12.419Z,1012.04
2019-01-19T04:53:12.389Z,1012.03
2019-01-19T04:54:12.361Z,1012.03
2019-01-19T04:55:12.333Z,1012.01
2019-01-19T04:56:12.301Z,1012.00
2019-01-19T04:57:12.271Z,1012.02
2019-01-19T04:58:12.246Z,1011.98
2019-01-19T04:59:12.211Z,1011.95
2019-01-19T05:00:12.183Z,1011.97
2019-01-19T05:01:12.155Z,1011.97
2019-01-19T05:02:12.128Z,1011.95
2019-01-19T05:03:12.099Z,1011.95
2019-01-19T05:04:12.065Z,1011.95
2019-01-19T05:05:12.034Z,1011.98
2019-01-19T05:06:12.738Z,1011.98
2019-01-19T05:07:11.979Z,1011.96
2019-01-19T05:08:11.950Z,1012.01
2019-01-19T05:09:11.920Z,1012.00
2019-01-19T05:10:11.892Z,1011.98
2019-01-19T05:11:11.861Z,1011.96
2019-01-19T05:12:11.827Z,1011.97
2019-01-19T05:13:11.803Z,1011.95
2019-01-19T05:14:11.775Z,1011.96
2019-01-19T05:15:11.738Z,1012.00
2019-01-19T05:16:11.717Z,1011.97
2019-01-19T05:17:11.686Z,1011.98
2019-01-19T05:18:11.657Z,1011.96
2019-01-19T05:19:11.621Z,1012.05
2019-01-19T05:20:11.591Z,1012.05
2019-01-19T05:21:11.563Z,1012.02
2019-01-19T05:22:11.532Z,1012.00
2019-01-19T05:23:11.502Z,1012.03
2019-01-19T05:24:11.476Z,1012.02
2019-01-19T05:25:11.448Z,1012.00
2019-01-19T05:26:11.414Z,1012.00
2019-01-19T05:27:11.383Z,1012.00
2019-01-19T05:28:11.484Z,1011.99
2019-01-19T05:29:11.326Z,1011.98
2019-01-19T05:30:11.299Z,1012.04
2019-01-19T05:31:11.269Z,1012.01
2019-01-19T05:32:11.234Z,1012.01
2019-01-19T05:33:11.207Z,1011.98
2019-01-19T05:34:11.177Z,1012.03
2019-01-19T05:35:11.146Z,1012.01
2019-01-19T05:36:11.117Z,1011.99
2019-01-19T05:37:11.090Z,1012.00
2019-01-19T05:38:11.057Z,1012.01
2019-01-19T05:39:11.071Z,1012.03
2019-01-19T05:40:11.004Z,1012.02
2019-01-19T05:41:10.974Z,1012.04
2019-01-19T05:42:10.939Z,1012.04
2019-01-19T05:43:10.908Z,1012.05
2019-01-19T05:44:10.883Z,1012.07
2019-01-19T05:45:10.867Z,1012.07
2019-01-19T05:46:10.820Z,1012.10
2019-01-19T05:47:10.797Z,1012.10
2019-01-19T05:48:10.768Z,1012.05
2019-01-19T05:49:10.730Z,1012.08
2019-01-19T05:50:10.700Z,1012.05
2019-01-19T05:51:10.679Z,1012.04
2019-01-19T05:52:10.641Z,1012.02
2019-01-19T05:53:10.620Z,1012.06
2019-01-19T05:54:10.585Z,1012.05
2019-01-19T05:55:10.551Z,1012.06
2019-01-19T05:56:10.530Z,1012.04
2019-01-19T05:57:10.494Z,1012.08
2019-01-19T05:58:10.461Z,1012.03
2019-01-19T05:59:10.435Z,1012.09
2019-01-19T06:00:10.402Z,1012.08
2019-01-19T06:01:10.371Z,1012.07
2019-01-19T06:02:10.346Z,1012.04
2019-01-19T06:03:10.318Z,1012.02
2019-01-19T06:04:10.282Z,1012.01
2019-01-19T06:05:10.262Z,1012.03
2019-01-19T06:06:10.223Z,1012.02
2019-01-19T06:07:10.198Z,1012.06
2019-01-19T06:08:10.171Z,1012.03
2019-01-19T06:09:10.134Z,1012.06
2019-01-19T06:10:10.103Z,1012.09
2019-01-19T06:11:10.076Z,1012.13
2019-01-19T06:12:10.057Z,1012.10
2019-01-19T06:13:10.018Z,1012.12
2019-01-19T06:14:09.987Z,1012.14
2019-01-19T06:15:09.956Z,1012.10
2019-01-19T06:16:09.926Z,1012.12
2019-01-19T06:17:09.901Z,1012.14
2019-01-19T06:18:09.874Z,1012.14
2019-01-19T06:19:09.833Z,1012.15
2019-01-19T06:20:09.808Z,1012.13
2019-01-19T06:21:09.778Z,1012.14
2019-01-19T06:22:09.744Z,1012.10
2019-01-19T06:23:09.714Z,1012.10
2019-01-19T06:24:09.686Z,1012.13
2019-01-19T06:25:09.659Z,1012.11
2019-01-19T06:26:09.625Z,1012.13
2019-01-19T06:27:09.593Z,1012.14
2019-01-19T06:28:09.565Z,1012.11
2019-01-19T06:29:09.539Z,1012.11
2019-01-19T06:30:09.505Z,1012.11
2019-01-19T06:31:09.475Z,1012.08
2019-01-19T06:32:09.450Z,1012.08
2019-01-19T06:33:09.414Z,1012.06
2019-01-19T06:34:09.389Z,1012.04
2019-01-19T06:35:09.361Z,1012.07
2019-01-19T06:36:09.329Z,1012.03
2019-01-19T06:37:09.295Z,1012.05
2019-01-19T06:38:09.265Z,1012.02
2019-01-19T06:39:09.235Z,1012.06
2019-01-19T06:40:09.207Z,1012.04
2019-01-19T06:41:09.173Z,1012.05
2019-01-19T06:42:09.146Z,1012.06
2019-01-19T06:43:09.113Z,1012.03
2019-01-19T06:44:09.087Z,1012.00
2019-01-19T06:45:09.057Z,1012.03
2019-01-19T06:46:09.023Z,1012.07
2019-01-19T06:47:08.996Z,1012.04
2019-01-19T06:48:08.965Z,1012.04
2019-01-19T06:49:08.935Z,1012.02
2019-01-19T06:50:08.902Z,1012.04
2019-01-19T06:51:08.872Z,1012.06
2019-01-19T06:52:08.842Z,1012.03
2019-01-19T06:53:08.816Z,1012.03
2019-01-19T06:54:08.787Z,1012.05
2019-01-19T06:55:08.751Z,1012.02
2019-01-19T06:56:08.768Z,1012.04
2019-01-19T06:57:08.691Z,1012.01
2019-01-19T06:58:08.662Z,1012.02
2019-01-19T06:59:08.631Z,1012.05
2019-01-19T07:00:08.605Z,1012.04
2019-01-19T07:01:08.570Z,1012.04
2019-01-19T07:02:08.540Z,1012.06
2019-01-19T07:03:08.510Z,1012.04
2019-01-19T07:04:08.479Z,1012.04
2019-01-19T07:05:08.453Z,1012.02
2019-01-19T07:06:08.420Z,1012.06
2019-01-19T07:07:08.390Z,1012.01
2019-01-19T07:08:08.359Z,1012.02
2019-01-19T07:09:08.331Z,1012.03
2019-01-19T07:10:08.303Z,1012.06
2019-01-19T07:11:08.268Z,1012.08
2019-01-19T07:12:08.240Z,1012.01
2019-01-19T07:13:08.209Z,1012.08
2019-01-19T07:14:08.178Z,1012.08
2019-01-19T07:15:08.151Z,1012.07
2019-01-19T07:16:08.120Z,1012.08
2019-01-19T07:17:08.087Z,1012.10
2019-01-19T07:18:08.059Z,1012.10
2019-01-19T07:19:08.029Z,1012.11
2019-01-19T07:20:07.997Z,1012.17
2019-01-19T07:21:07.968Z,1012.16
2019-01-19T07:22:07.942Z,1012.10
2019-01-19T07:23:07.906Z,1012.11
2019-01-19T07:24:07.876Z,1012.13
2019-01-19T07:25:07.847Z,1012.17
2019-01-19T07:26:07.816Z,1012.16
2019-01-19T07:27:07.786Z,1012.16
2019-01-19T07:28:07.755Z,1012.21
2019-01-19T07:29:07.725Z,1012.19
2019-01-19T07:30:07.697Z,1012.20
2019-01-19T07:31:07.665Z,1012.19
2019-01-19T07:32:07.635Z,1012.21
2019-01-19T07:33:07.608Z,1012.22
2019-01-19T07:34:07.578Z,1012.25
2019-01-19T07:35:07.546Z,1012.27
2019-01-19T07:36:07.514Z,1012.30
2019-01-19T07:37:09.981Z,1012.27
2019-01-19T07:38:07.454Z,1012.29
2019-01-19T07:39:07.428Z,1012.30
2019-01-19T07:40:07.403Z,1012.31
2019-01-19T07:41:07.368Z,1012.30
2019-01-19T07:42:07.335Z,1012.30
2019-01-19T07:43:07.307Z,1012.31
2019-01-19T07:44:07.274Z,1012.32
2019-01-19T07:45:07.244Z,1012.28
2019-01-19T07:46:07.214Z,1012.30
2019-01-19T07:47:07.183Z,1012.32
2019-01-19T07:48:07.153Z,1012.33
2019-01-19T07:49:07.127Z,1012.35
2019-01-19T07:50:07.102Z,1012.38
2019-01-19T07:51:07.062Z,1012.41
2019-01-19T07:52:07.033Z,1012.38
2019-01-19T07:53:07.003Z,1012.36
2019-01-19T07:54:08.442Z,1012.37
2019-01-19T07:55:06.946Z,1012.40
2019-01-19T07:56:06.917Z,1012.40
2019-01-19T07:57:06.883Z,1012.39
2019-01-19T07:58:06.857Z,1012.39
2019-01-19T07:59:06.822Z,1012.40
2019-01-19T08:00:06.798Z,1012.43
2019-01-19T08:01:06.764Z,1012.44
2019-01-19T08:02:06.737Z,1012.38
2019-01-19T08:03:06.703Z,1012.44
2019-01-19T08:04:06.673Z,1012.47
2019-01-19T08:05:06.651Z,1012.46
2019-01-19T08:06:06.615Z,1012.44
2019-01-19T08:07:06.584Z,1012.47
2019-01-19T08:08:06.554Z,1012.44
2019-01-19T08:09:06.539Z,1012.42
2019-01-19T08:10:06.498Z,1012.50
2019-01-19T08:11:06.465Z,1012.44
2019-01-19T08:12:06.434Z,1012.50
2019-01-19T08:13:06.404Z,1012.51
2019-01-19T08:14:06.375Z,1012.51
2019-01-19T08:15:06.349Z,1012.53
2019-01-19T08:16:06.315Z,1012.56
2019-01-19T08:17:06.287Z,1012.60
2019-01-19T08:18:06.257Z,1012.59
2019-01-19T08:19:06.226Z,1012.60
2019-01-19T08:20:06.198Z,1012.63
2019-01-19T08:21:06.168Z,1012.65
2019-01-19T08:22:06.138Z,1012.65
2019-01-19T08:23:06.108Z,1012.66
2019-01-19T08:24:06.079Z,1012.67
2019-01-19T08:25:06.056Z,1012.67
2019-01-19T08:26:06.024Z,1012.67
2019-01-19T08:27:05.992Z,1012.68
2019-01-19T08:28:05.967Z,1012.67
2019-01-19T08:29:05.937Z,1012.69
2019-01-19T08:30:05.909Z,1012.70
2019-01-19T08:31:05.876Z,1012.70
2019-01-19T08:32:05.850Z,1012.71
2019-01-19T08:33:05.818Z,1012.70
2019-01-19T08:34:05.793Z,1012.67
2019-01-19T08:35:05.759Z,1012.71
2019-01-19T08:36:05.783Z,1012.73
2019-01-19T08:37:05.705Z,1012.70
2019-01-19T08:38:05.678Z,1012.74
2019-01-19T08:39:05.649Z,1012.78
2019-01-19T08:40:05.618Z,1012.74
2019-01-19T08:41:05.589Z,1012.75
2019-01-19T08:42:05.565Z,1012.74
2019-01-19T08:43:05.567Z,1012.77
2019-01-19T08:44:05.505Z,1012.77
2019-01-19T08:45:05.477Z,1012.84
2019-01-19T08:46:05.453Z,1012.82
2019-01-19T08:47:05.425Z,1012.84
2019-01-19T08:48:05.396Z,1012.86
2019-01-19T08:49:05.389Z,1012.86
2019-01-19T08:50:05.342Z,1012.82
2019-01-19T08:51:05.310Z,1012.82
2019-01-19T08:52:05.283Z,1012.83
2019-01-19T08:53:05.257Z,1012.82
2019-01-19T08:54:05.229Z,1012.82
2019-01-19T08:55:05.206Z,1012.85
2019-01-19T08:56:05.179Z,1012.88
2019-01-19T08:57:05.148Z,1012.88
2019-01-19T08:58:05.125Z,1012.90
2019-01-19T08:59:05.094Z,1012.95
2019-01-19T09:00:05.067Z,1012.97
2019-01-19T09:01:05.040Z,1012.95
2019-01-19T09:02:05.015Z,1012.94
2019-01-19T09:03:04.988Z,1012.96
2019-01-19T09:04:04.964Z,1012.96
2019-01-19T09:05:04.938Z,1012.95
2019-01-19T09:06:04.910Z,1012.94
2019-01-19T09:07:04.883Z,1012.97
2019-01-19T09:08:04.856Z,1012.93
2019-01-19T09:09:04.834Z,1012.96
2019-01-19T09:10:04.805Z,1013.00
2019-01-19T09:11:04.778Z,1013.00
2019-01-19T09:12:04.752Z,1013.07
2019-01-19T09:13:04.731Z,1013.10
2019-01-19T09:14:04.708Z,1013.07
2019-01-19T09:15:04.676Z,1013.09
2019-01-19T09:16:04.653Z,1013.12
2019-01-19T09:17:04.631Z,1013.15
2019-01-19T09:18:04.601Z,1013.17
2019-01-19T09:19:04.578Z,1013.21
2019-01-19T09:20:04.552Z,1013.16
2019-01-19T09:21:04.526Z,1013.14
2019-01-19T09:22:04.505Z,1013.08
2019-01-19T09:23:04.477Z,1013.15
2019-01-19T09:24:04.452Z,1013.15
2019-01-19T09:25:04.427Z,1013.18
2019-01-19T09:26:04.402Z,1013.17
2019-01-19T09:27:04.380Z,1013.18
2019-01-19T09:28:04.356Z,1013.15
2019-01-19T09:29:04.335Z,1013.18
2019-01-19T09:30:04.304Z,1013.19
2019-01-19T09:31:04.282Z,1013.22
2019-01-19T09:32:04.258Z,1013.20
2019-01-19T09:33:04.230Z,1013.24
2019-01-19T09:34:04.206Z,1013.27
2019-01-19T09:35:04.180Z,1013.28
2019-01-19T09:36:04.160Z,1013.30
2019-01-19T09:37:04.133Z,1013.31
2019-01-19T09:38:04.112Z,1013.31
2019-01-19T09:39:04.087Z,1013.33
2019-01-19T09:40:04.060Z,1013.35
2019-01-19T09:41:04.034Z,1013.33
2019-01-19T09:42:04.015Z,1013.32
2019-01-19T09:43:03.994Z,1013.30
2019-01-19T09:44:03.965Z,1013.31
2019-01-19T09:45:03.940Z,1013.30
2019-01-19T09:46:03.916Z,1013.35
2019-01-19T09:47:03.892Z,1013.33
2019-01-19T09:48:03.867Z,1013.31
2019-01-19T09:49:03.850Z,1013.36
2019-01-19T09:50:03.825Z,1013.34
2019-01-19T09:51:03.798Z,1013.33
2019-01-19T09:52:03.778Z,1013.37
2019-01-19T09:53:03.755Z,1013.37
2019-01-19T09:54:03.732Z,1013.43
2019-01-19T09:55:03.704Z,1013.48
2019-01-19T09:56:03.681Z,1013.48
2019-01-19T09:57:03.659Z,1013.50
2019-01-19T09:58:03.636Z,1013.50
2019-01-19T09:59:03.613Z,1013.45
2019-01-19T10:00:03.594Z,1013.41
2019-01-19T10:01:03.567Z,1013.38
2019-01-19T10:02:03.552Z,1013.36
2019-01-19T10:03:03.525Z,1013.36
2019-01-19T10:04:03.506Z,1013.37
2019-01-19T10:05:03.480Z,1013.35
2019-01-19T10:06:03.460Z,1013.31
2019-01-19T10:07:03.437Z,1013.34
2019-01-19T10:08:03.411Z,1013.30
2019-01-19T10:09:03.394Z,1013.34
2019-01-19T10:10:03.369Z,1013.34
2019-01-19T10:11:03.346Z,1013.35
2019-01-19T10:12:03.332Z,1013.31
2019-01-19T10:13:03.303Z,1013.30
2019-01-19T10:14:03.287Z,1013.24
2019-01-19T10:15:03.259Z,1013.27
2019-01-19T10:16:03.239Z,1013.26
2019-01-19T10:17:03.217Z,1013.27
2019-01-19T10:18:03.205Z,1013.28
2019-01-19T10:19:03.173Z,1013.28
2019-01-19T10:20:03.153Z,1013.29
2019-01-19T10:21:03.135Z,1013.28
2019-01-19T10:22:03.165Z,1013.25
2019-01-19T10:23:03.091Z,1013.26
2019-01-19T10:24:03.066Z,1013.26
2019-01-19T10:25:03.050Z,1013.24
2019-01-19T10:26:03.026Z,1013.22
2019-01-19T10:27:03.002Z,1013.25
2019-01-19T10:28:02.982Z,1013.24
2019-01-19T10:29:02.961Z,1013.25
2019-01-19T10:30:02.942Z,1013.26
2019-01-19T10:31:02.922Z,1013.23
2019-01-19T10:32:02.898Z,1013.26
2019-01-19T10:33:02.877Z,1013.20
2019-01-19T10:34:02.855Z,1013.22
2019-01-19T10:35:02.837Z,1013.25
2019-01-19T10:36:02.814Z,1013.28
2019-01-19T10:37:02.791Z,1013.29
2019-01-19T10:38:02.775Z,1013.26
2019-01-19T10:39:02.748Z,1013.22
2019-01-19T10:40:02.728Z,1013.26
2019-01-19T10:41:02.707Z,1013.26
2019-01-19T10:42:03.207Z,1013.29
2019-01-19T10:43:02.665Z,1013.32
2019-01-19T10:44:02.646Z,1013.32
2019-01-19T10:45:02.623Z,1013.41
2019-01-19T10:46:02.603Z,1013.34
2019-01-19T10:47:02.586Z,1013.28
2019-01-19T10:48:02.563Z,1013.32
2019-01-19T10:49:02.544Z,1013.29
2019-01-19T10:50:02.523Z,1013.26
2019-01-19T10:51:02.506Z,1013.24
2019-01-19T10:52:02.482Z,1013.26
2019-01-19T10:53:02.462Z,1013.30
2019-01-19T10:54:02.443Z,1013.26
2019-01-19T10:55:02.426Z,1013.29
2019-01-19T10:56:02.406Z,1013.29
2019-01-19T10:57:02.382Z,1013.26
2019-01-19T10:58:02.364Z,1013.30
2019-01-19T10:59:02.347Z,1013.32
2019-01-19T11:00:02.323Z,1013.27
2019-01-19T11:01:02.305Z,1013.27
2019-01-19T11:02:02.659Z,1013.30
2019-01-19T11:03:02.268Z,1013.28
2019-01-19T11:04:02.249Z,1013.28
2019-01-19T11:05:02.232Z,1013.28
2019-01-19T11:06:02.214Z,1013.29
2019-01-19T11:07:02.187Z,1013.24
2019-01-19T11:08:03.829Z,1013.20
2019-01-19T11:09:02.152Z,1013.13
2019-01-19T11:10:02.136Z,1013.15
2019-01-19T11:11:02.112Z,1013.14
2019-01-19T11:12:02.096Z,1013.09
2019-01-19T11:13:02.076Z,1013.09
2019-01-19T11:14:02.057Z,1013.12
2019-01-19T11:15:02.040Z,1013.12
2019-01-19T11:16:02.023Z,1013.13
2019-01-19T11:17:02.005Z,1013.16
2019-01-19T11:18:01.985Z,1013.14
2019-01-19T11:19:01.962Z,1013.14
2019-01-19T11:20:01.949Z,1013.08
2019-01-19T11:21:01.925Z,1013.00
2019-01-19T11:22:01.907Z,1013.01
2019-01-19T11:23:01.896Z,1013.10
2019-01-19T11:24:01.889Z,1013.07
2019-01-19T11:25:01.851Z,1013.03
2019-01-19T11:26:01.836Z,1012.99
2019-01-19T11:27:01.812Z,1012.97
2019-01-19T11:28:01.798Z,1012.95
2019-01-19T11:29:01.780Z,1012.97
2019-01-19T11:30:01.765Z,1012.95
2019-01-19T11:31:01.738Z,1012.93
2019-01-19T11:32:01.721Z,1012.95
2019-01-19T11:33:01.705Z,1012.98
2019-01-19T11:34:02.893Z,1012.99
2019-01-19T11:35:01.663Z,1012.96
2019-01-19T11:36:01.647Z,1013.02
2019-01-19T11:37:01.627Z,1013.01
2019-01-19T11:38:01.613Z,1013.02
2019-01-19T11:39:01.597Z,1013.06
2019-01-19T11:40:01.578Z,1013.08
2019-01-19T11:41:01.554Z,1013.06
2019-01-19T11:42:01.537Z,1013.09
2019-01-19T11:43:01.518Z,1013.12
2019-01-19T11:44:01.499Z,1013.09
2019-01-19T11:45:01.486Z,1013.06
2019-01-19T11:46:01.463Z,1013.08
2019-01-19T11:47:01.450Z,1013.04
2019-01-19T11:48:01.428Z,1013.03
2019-01-19T11:49:01.411Z,1013.02
2019-01-19T11:50:01.404Z,1013.02
2019-01-19T11:51:01.375Z,1013.00
2019-01-19T11:52:01.360Z,1013.07
2019-01-19T11:53:01.341Z,1013.08
2019-01-19T11:54:01.321Z,1012.98
2019-01-19T11:55:01.304Z,1013.02
2019-01-19T11:56:01.286Z,1013.04
2019-01-19T11:57:01.272Z,1013.01
2019-01-19T11:58:01.250Z,1013.02
2019-01-19T11:59:01.232Z,1013.06
2019-01-19T12:00:01.216Z,1012.75
2019-01-19T12:01:01.198Z,1012.83
2019-01-19T12:02:01.181Z,1013.03
2019-01-19T12:03:01.162Z,1013.01
2019-01-19T12:04:01.145Z,1013.01
2019-01-19T12:05:01.129Z,1013.03